Time;durP1;ratioP1;P1;durP2;ratioP2;P2;SDS_P1;SDS_P2;PMS_P1;PMS_P2;Temp;Humidity;BMP_temperature;BMP_pressure;BME280_temperature;BME280_humidity;BME280_pressure;Samples;Min_cycle;Max_cycle;Signal;HPM_P1;HPM_P2
2020/12/12 00:01:08;;;;;;;48.97;24.33;;;4.90;96.90;;;;;;4861675;29;20044;-89
2020/12/12 00:04:29;;;;;;;42.70;24.13;;;4.90;96.90;;;;;;4869664;29;20049;-89
2020/12/12 00:07:06;;;;;;;53.23;26.33;;;4.90;97.00;;;;;;4808566;29;20049;-80
2020/12/12 00:09:35;;;;;;;50.17;27.97;;;4.90;96.90;;;;;;4807153;29;20050;-85
2020/12/12 00:12:02;;;;;;;62.43;30.17;;;4.90;96.90;;;;;;4816361;29;20109;-86
2020/12/12 00:14:32;;;;;;;45.60;26.20;;;4.90;96.90;;;;;;4818518;29;20050;-85
2020/12/12 00:17:00;;;;;;;66.07;31.40;;;5.00;96.90;;;;;;4843861;29;20373;-85
2020/12/12 00:19:26;;;;;;;55.15;29.13;;;5.00;96.90;;;;;;4855385;29;20051;-85
2020/12/12 00:21:54;;;;;;;64.00;31.87;;;5.00;96.90;;;;;;4858493;29;20033;-85
2020/12/12 00:24:25;;;;;;;87.07;36.77;;;5.00;96.90;;;;;;4860459;29;20063;-84
2020/12/12 00:27:38;;;;;;;44.40;24.23;;;5.00;96.90;;;;;;4834587;29;20045;-85
2020/12/12 00:30:10;;;;;;;46.47;25.65;;;5.00;97.00;;;;;;4873603;29;20040;-86
2020/12/12 00:32:43;;;;;;;41.30;21.60;;;5.00;96.90;;;;;;4879991;29;20032;-85
2020/12/12 00:35:16;;;;;;;62.70;29.30;;;5.00;97.00;;;;;;4865487;29;20044;-86
2020/12/12 00:37:46;;;;;;;62.00;30.73;;;5.00;97.00;;;;;;4896207;29;20044;-87
2020/12/12 00:40:18;;;;;;;49.40;25.87;;;5.00;96.90;;;;;;4876431;29;20052;-86
2020/12/12 00:42:47;;;;;;;44.57;23.67;;;5.00;96.90;;;;;;4866943;29;20049;-86
2020/12/12 00:45:14;;;;;;;55.97;27.40;;;5.00;97.00;;;;;;4896083;29;20060;-85
2020/12/12 00:47:41;;;;;;;37.30;23.17;;;5.00;96.90;;;;;;4893934;29;20037;-85
2020/12/12 00:50:07;;;;;;;44.50;23.92;;;5.00;96.90;;;;;;4865309;29;20053;-85
2020/12/12 00:52:37;;;;;;;58.77;27.73;;;5.00;96.90;;;;;;4879736;29;20047;-86
2020/12/12 00:55:07;;;;;;;40.87;24.00;;;5.00;96.90;;;;;;4893066;29;20051;-87
2020/12/12 00:57:42;;;;;;;;;;;5.10;96.90;;;;;;4856927;29;20045;-88
2020/12/12 01:00:12;;;;;;;46.42;25.02;;;5.10;97.00;;;;;;4879989;29;19939;-88
2020/12/12 01:03:22;;;;;;;46.95;25.10;;;5.10;96.90;;;;;;4878431;29;20053;-87
2020/12/12 01:05:55;;;;;;;55.40;28.88;;;5.00;96.90;;;;;;4861150;29;20032;-87
2020/12/12 01:08:28;;;;;;;70.23;31.80;;;5.00;96.90;;;;;;4894590;29;20037;-88
2020/12/12 01:10:55;;;;;;;57.08;28.05;;;5.00;96.90;;;;;;4862131;29;20044;-87
2020/12/12 01:13:25;;;;;;;52.97;24.93;;;5.00;96.90;;;;;;4862394;29;20052;-88
2020/12/12 01:16:04;;;;;;;43.77;23.13;;;5.10;97.00;;;;;;4880773;29;20048;-88
2020/12/12 01:18:40;;;;;;;45.57;23.87;;;5.10;97.00;;;;;;4857655;29;20052;-87
2020/12/12 01:21:07;;;;;;;46.67;24.23;;;5.10;97.00;;;;;;4860484;29;20511;-86
2020/12/12 01:23:37;;;;;;;51.38;25.58;;;5.10;97.00;;;;;;4889384;29;20060;-86
2020/12/12 01:26:14;;;;;;;50.47;26.05;;;5.10;97.00;;;;;;4879642;29;20051;-87
2020/12/12 01:29:04;;;;;;;55.63;27.00;;;5.10;96.90;;;;;;4873505;29;20051;-87
2020/12/12 01:31:31;;;;;;;81.30;32.00;;;5.10;97.00;;;;;;4864830;29;20043;-87
2020/12/12 01:33:58;;;;;;;43.60;26.42;;;5.10;96.90;;;;;;4877666;29;20041;-87
2020/12/12 01:36:25;;;;;;;64.78;30.55;;;5.10;96.90;;;;;;4861148;29;20045;-87
2020/12/12 01:38:55;;;;;;;56.03;28.27;;;5.10;96.90;;;;;;4860027;29;20056;-87
2020/12/12 01:41:28;;;;;;;52.60;27.87;;;5.10;96.90;;;;;;4879103;29;20041;-86
2020/12/12 01:44:03;;;;;;;60.70;30.70;;;5.10;96.90;;;;;;4861432;29;20036;-86
2020/12/12 01:46:38;;;;;;;53.40;28.50;;;5.10;96.90;;;;;;4892394;29;20052;-89
2020/12/12 01:49:06;;;;;;;44.10;25.90;;;5.10;97.00;;;;;;4855394;29;20032;-87
2020/12/12 01:51:40;;;;;;;48.63;25.87;;;5.10;96.90;;;;;;4847247;29;20052;-89
2020/12/12 01:54:14;;;;;;;53.53;27.23;;;5.10;97.00;;;;;;4866098;29;20045;-88
2020/12/12 01:56:49;;;;;;;49.30;24.40;;;5.20;97.00;;;;;;4880782;29;20032;-87
2020/12/12 01:59:16;;;;;;;55.28;25.60;;;5.20;97.00;;;;;;4881687;29;20040;-88
2020/12/12 02:02:06;;;;;;;71.50;32.73;;;5.20;97.00;;;;;;4880103;29;20433;-88
2020/12/12 02:04:48;;;;;;;57.83;30.70;;;5.20;97.00;;;;;;4864889;29;20044;-88
2020/12/12 02:07:22;;;;;;;55.50;28.30;;;5.20;97.00;;;;;;4870875;29;20052;-88
2020/12/12 02:09:49;;;;;;;73.28;34.03;;;5.20;97.00;;;;;;4863046;29;20040;-88
2020/12/12 02:12:19;;;;;;;58.33;29.07;;;5.20;97.00;;;;;;4880638;29;20036;-87
2020/12/12 02:14:49;;;;;;;63.45;31.40;;;5.20;97.00;;;;;;4878002;29;20048;-86
2020/12/12 02:17:19;;;;;;;56.43;27.50;;;5.20;97.00;;;;;;4861010;29;20049;-86
2020/12/12 02:19:45;;;;;;;63.23;30.53;;;5.20;97.00;;;;;;4873672;29;20052;-84
2020/12/12 02:22:17;;;;;;;60.00;31.77;;;5.20;97.00;;;;;;4863537;29;20063;-85
2020/12/12 02:24:44;;;;;;;52.47;27.08;;;5.20;97.00;;;;;;4848369;29;20040;-85
2020/12/12 02:27:14;;;;;;;53.43;28.67;;;5.20;97.00;;;;;;4878198;29;20040;-86
2020/12/12 02:29:50;;;;;;;62.37;29.40;;;5.20;97.00;;;;;;4863942;29;20049;-85
2020/12/12 02:32:17;;;;;;;61.57;30.67;;;5.30;97.00;;;;;;4861982;29;20049;-84
2020/12/12 02:34:44;;;;;;;74.10;33.75;;;5.30;97.00;;;;;;4861432;29;20045;-85
2020/12/12 02:37:15;;;;;;;59.50;29.55;;;5.20;97.00;;;;;;4860792;29;20424;-84
2020/12/12 02:39:44;;;;;;;69.23;31.40;;;5.20;97.00;;;;;;4863657;29;20041;-84
2020/12/12 02:42:17;;;;;;;63.08;30.83;;;5.30;97.00;;;;;;4875446;29;20060;-86
2020/12/12 02:44:53;;;;;;;70.40;32.10;;;5.30;97.00;;;;;;4876766;29;20049;-85
2020/12/12 02:47:40;;;;;;;58.77;28.70;;;5.30;97.00;;;;;;4875749;29;20036;-86
2020/12/12 02:50:10;;;;;;;88.03;35.42;;;5.30;97.00;;;;;;4872463;29;20041;-85
2020/12/12 02:52:41;;;;;;;67.80;31.85;;;5.30;97.00;;;;;;4879733;29;20130;-86
2020/12/12 02:55:10;;;;;;;62.73;29.40;;;5.30;97.00;;;;;;4892859;29;20063;-87
2020/12/12 02:57:41;;;;;;;60.83;31.77;;;5.30;97.00;;;;;;4878506;29;20369;-87
2020/12/12 03:00:10;;;;;;;59.58;29.17;;;5.30;97.00;;;;;;4879056;29;20041;-86
2020/12/12 03:06:11;;;;;;;54.25;29.40;;;5.30;97.00;;;;;;4892132;29;20040;-88
2020/12/12 03:08:40;;;;;;;55.05;29.17;;;5.30;97.00;;;;;;4864364;29;20032;-87
2020/12/12 03:11:18;;;;;;;58.13;28.93;;;5.30;97.00;;;;;;4857143;29;20041;-86
2020/12/12 03:14:02;;;;;;;51.85;26.98;;;5.30;97.00;;;;;;4863075;29;20052;-87
2020/12/12 03:16:30;;;;;;;68.60;33.75;;;5.40;97.00;;;;;;4876823;29;20040;-87
2020/12/12 03:19:15;;;;;;;71.28;32.33;;;5.40;97.00;;;;;;4857391;29;20045;-87
2020/12/12 03:22:11;;;;;;;68.37;30.23;;;5.30;97.00;;;;;;4875256;29;20041;-87
2020/12/12 03:24:48;;;;;;;46.25;25.08;;;5.30;97.00;;;;;;4860797;29;20067;-87
2020/12/12 03:27:26;;;;;;;62.05;28.85;;;5.40;97.00;;;;;;4867450;29;20055;-87
2020/12/12 03:30:09;;;;;;;66.88;31.27;;;5.40;97.00;;;;;;4861015;29;20076;-87
2020/12/12 03:32:48;;;;;;;67.90;29.90;;;5.40;97.00;;;;;;4865340;29;20044;-87
2020/12/12 03:35:22;;;;;;;58.80;28.42;;;5.40;97.00;;;;;;4894998;29;20052;-87
2020/12/12 03:37:49;;;;;;;78.40;33.90;;;5.40;97.00;;;;;;4892057;29;20044;-87
2020/12/12 03:40:23;;;;;;;88.57;35.03;;;5.40;97.00;;;;;;4892100;29;20061;-86
2020/12/12 03:43:22;;;;;;;61.53;30.40;;;5.40;97.00;;;;;;4864289;29;20049;-87
2020/12/12 03:45:49;;;;;;;70.03;29.83;;;5.40;97.00;;;;;;4894156;29;20067;-86
2020/12/12 03:48:16;;;;;;;63.10;28.63;;;5.40;97.00;;;;;;4879397;29;20877;-86
2020/12/12 03:50:50;;;;;;;54.88;26.98;;;5.40;97.00;;;;;;4882126;29;20040;-88
2020/12/12 03:53:24;;;;;;;60.77;27.07;;;5.40;97.00;;;;;;4883899;29;20052;-88
2020/12/12 03:56:30;;;;;;;57.15;27.30;;;5.40;97.00;;;;;;4866206;29;20403;-87
2020/12/12 03:59:09;;;;;;;64.37;29.00;;;5.40;97.00;;;;;;4894946;29;20044;-85
2020/12/12 04:01:36;;;;;;;66.50;29.05;;;5.40;97.00;;;;;;4895629;29;20063;-87
2020/12/12 04:04:06;;;;;;;60.00;28.58;;;5.40;97.10;;;;;;4864357;29;20041;-85
2020/12/12 04:06:36;;;;;;;69.63;30.13;;;5.40;97.00;;;;;;4864356;29;20118;-85
2020/12/12 04:09:15;;;;;;;70.18;30.58;;;5.40;97.10;;;;;;4897459;29;20051;-85
2020/12/12 04:11:58;;;;;;;59.87;28.33;;;5.40;97.10;;;;;;4877321;29;20503;-85
2020/12/12 04:14:32;;;;;;;44.25;24.33;;;5.40;97.00;;;;;;4865303;29;20809;-85
2020/12/12 04:17:14;;;;;;;58.22;27.85;;;5.40;97.00;;;;;;4881336;29;20047;-86
2020/12/12 04:19:49;;;;;;;59.10;25.95;;;5.40;97.10;;;;;;4867699;29;20040;-85
2020/12/12 04:22:22;;;;;;;63.42;27.98;;;5.40;97.10;;;;;;4860629;29;20068;-86
2020/12/12 04:28:42;;;;;;;66.82;29.55;;;5.50;97.10;;;;;;4868751;29;20056;-85
2020/12/12 04:35:24;;;;;;;57.63;26.35;;;5.40;97.10;;;;;;4813352;29;20045;-86
2020/12/12 04:37:51;;;;;;;62.80;26.40;;;5.50;97.10;;;;;;4810059;29;20058;-85
2020/12/12 04:40:18;;;;;;;48.67;22.92;;;5.50;97.10;;;;;;4809532;29;20050;-86
2020/12/12 04:42:54;;;;;;;55.20;26.95;;;5.40;97.10;;;;;;4840898;29;20038;-85
2020/12/12 04:45:21;;;;;;;63.80;28.38;;;5.50;97.10;;;;;;4809632;29;20409;-85
2020/12/12 04:47:49;;;;;;;55.07;25.93;;;5.50;97.10;;;;;;4840197;29;20053;-85
2020/12/12 04:50:18;;;;;;;60.97;26.48;;;5.50;97.10;;;;;;4840649;29;20414;-85
2020/12/12 04:52:44;;;;;;;64.80;28.70;;;5.50;97.10;;;;;;4825851;29;20414;-85
2020/12/12 04:55:11;;;;;;;68.07;29.85;;;5.60;97.10;;;;;;4849559;29;20489;-85
2020/12/12 04:57:39;;;;;;;68.28;29.13;;;5.50;97.10;;;;;;4846912;29;20544;-85
2020/12/12 05:00:12;;;;;;;55.47;26.30;;;5.50;97.10;;;;;;4830464;29;20525;-85
2020/12/12 05:02:42;;;;;;;48.70;25.08;;;5.60;97.10;;;;;;4847208;29;20040;-85
2020/12/12 05:05:21;;;;;;;69.35;29.73;;;5.60;97.10;;;;;;4844401;29;20041;-84
2020/12/12 05:08:12;;;;;;;70.18;29.95;;;5.60;97.10;;;;;;4845764;29;20044;-87
2020/12/12 05:10:47;;;;;;;51.73;27.07;;;5.60;97.10;;;;;;4826086;29;20040;-86
2020/12/12 05:13:25;;;;;;;67.20;28.70;;;5.60;97.10;;;;;;4845816;29;20603;-84
2020/12/12 05:15:54;;;;;;;84.18;41.55;;;5.60;97.10;;;;;;4863061;29;20051;-86
2020/12/12 05:18:24;;;;;;;74.80;31.42;;;5.60;97.10;;;;;;4880947;29;20489;-86
2020/12/12 05:20:54;;;;;;;81.63;32.15;;;5.60;97.10;;;;;;4851914;29;20040;-86
2020/12/12 05:23:27;;;;;;;83.10;32.30;;;5.60;97.10;;;;;;4852253;29;20048;-86
2020/12/12 05:26:12;;;;;;;68.13;28.35;;;5.60;97.10;;;;;;4865610;29;20044;-86
2020/12/12 05:28:45;;;;;;;84.15;29.92;;;5.60;97.10;;;;;;4867611;29;20043;-84
2020/12/12 05:31:12;;;;;;;60.55;27.38;;;5.70;97.10;;;;;;4880502;29;20515;-87
2020/12/12 05:33:44;;;;;;;66.35;27.23;;;5.60;97.10;;;;;;4860051;29;20044;-85
2020/12/12 05:36:22;;;;;;;80.93;33.80;;;5.70;97.10;;;;;;4835968;29;20052;-86
2020/12/12 05:38:57;;;;;;;83.60;33.70;;;5.70;97.10;;;;;;4880269;29;20052;-87
2020/12/12 05:41:27;;;;;;;102.03;34.65;;;5.70;97.10;;;;;;4878415;29;20037;-85
2020/12/12 05:43:54;;;;;;;66.75;30.13;;;5.70;97.10;;;;;;4864778;29;20044;-84
2020/12/12 05:46:23;;;;;;;77.35;30.15;;;5.70;97.10;;;;;;4895843;29;20055;-86
2020/12/12 05:48:58;;;;;;;65.72;27.08;;;5.70;97.10;;;;;;4864145;29;20037;-86
2020/12/12 05:51:30;;;;;;;76.93;31.00;;;5.70;97.10;;;;;;4864531;29;20041;-86
2020/12/12 05:54:15;;;;;;;76.72;29.40;;;5.70;97.10;;;;;;4892407;29;20048;-86
2020/12/12 05:56:49;;;;;;;49.72;24.58;;;5.70;97.10;;;;;;4852414;29;20047;-87
2020/12/12 05:59:16;;;;;;;57.63;24.48;;;5.70;97.10;;;;;;4873525;29;20033;-86
2020/12/12 06:01:55;;;;;;;69.75;27.60;;;5.80;97.10;;;;;;4880005;29;20400;-86
2020/12/12 06:04:33;;;;;;;54.38;24.63;;;5.80;97.10;;;;;;4879267;29;20045;-87
2020/12/12 06:07:08;;;;;;;56.28;25.00;;;5.80;97.10;;;;;;4870246;29;20106;-88
2020/12/12 06:09:52;;;;;;;70.18;26.95;;;5.80;97.10;;;;;;4891045;29;20408;-87
2020/12/12 06:12:23;;;;;;;56.38;25.33;;;5.80;97.10;;;;;;4874823;29;20059;-88
2020/12/12 06:19:02;;;;;;;65.32;26.83;;;5.80;97.10;;;;;;4872798;29;20044;-86
2020/12/12 06:21:33;;;;;;;63.42;29.20;;;5.80;97.10;;;;;;4890742;29;20052;-85
2020/12/12 06:24:03;;;;;;;63.38;27.52;;;5.80;97.10;;;;;;4874353;29;20413;-84
2020/12/12 06:31:47;;;;;;;48.30;21.17;;;5.90;97.10;;;;;;4885585;29;20048;-87
2020/12/12 06:35:00;;;;;;;59.40;22.77;;;5.90;97.10;;;;;;4880714;29;20293;-87
2020/12/12 06:37:43;;;;;;;59.95;22.35;;;5.90;97.10;;;;;;4864623;29;20055;-86
2020/12/12 06:40:19;;;;;;;93.47;26.80;;;5.90;97.10;;;;;;4878996;29;20049;-87
2020/12/12 06:43:31;;;;;;;71.32;24.60;;;5.90;97.10;;;;;;4877819;29;20061;-88
2020/12/12 06:46:18;;;;;;;;;;;;;;;;;;;;;
2020/12/12 06:49:16;;;;;;;82.00;24.83;;;5.90;97.10;;;;;;4865955;29;20412;-88
2020/12/12 06:55:47;;;;;;;63.05;22.90;;;6.00;97.10;;;;;;4863806;29;20052;-88
2020/12/12 06:59:03;;;;;;;;;;;;;;;;;;;;;
2020/12/12 07:02:19;;;;;;;65.88;21.00;;;6.00;97.10;;;;;;4817037;29;20046;-87
2020/12/12 07:05:19;;;;;;;57.75;21.80;;;6.00;97.10;;;;;;4804806;29;20061;-88
2020/12/12 07:08:31;;;;;;;69.90;22.48;;;6.00;97.10;;;;;;4774588;29;20042;-88
2020/12/12 07:16:19;;;;;;;44.75;18.08;;;6.00;97.10;;;;;;4761695;30;20059;-88
2020/12/12 07:20:29;;;;;;;29.08;14.90;;;6.10;97.10;;;;;;4700567;30;20052;-88
2020/12/12 07:46:19;;;;;;;;;;;;;;;;;;;;;
2020/12/12 07:55:17;;;;;;;142.52;23.90;;;6.20;97.10;;;;;;4579070;31;20052;-87
2020/12/12 07:59:13;;;;;;;67.93;19.40;;;6.20;97.00;;;;;;4602759;30;20768;-87
2020/12/12 08:02:10;;;;;;;65.97;20.95;;;6.20;97.10;;;;;;4760829;29;20165;-87
2020/12/12 08:05:41;;;;;;;;;;;;;;;;;;;;;
2020/12/12 08:09:08;;;;;;;141.98;24.85;;;6.20;97.00;;;;;;4703393;30;20516;-88
2020/12/12 08:12:53;;;;;;;100.32;20.10;;;6.20;97.00;;;;;;4760838;29;20487;-87
2020/12/12 08:19:24;;;;;;;201.05;25.88;;;6.30;97.00;;;;;;4769937;29;20282;-85
2020/12/12 08:22:33;;;;;;;33.75;14.45;;;6.30;97.10;;;;;;4820049;29;20415;-86
2020/12/12 08:25:10;;;;;;;;;;;6.30;97.10;;;;;;4796573;29;20065;-86
2020/12/12 08:27:43;;;;;;;179.30;25.47;;;6.30;97.10;;;;;;4821104;29;20388;-85
2020/12/12 08:30:32;;;;;;;238.13;27.73;;;6.40;97.10;;;;;;4781287;29;20043;-85
2020/12/12 08:33:29;;;;;;;154.38;23.02;;;6.30;97.10;;;;;;4808060;29;20537;-86
2020/12/12 08:36:56;;;;;;;73.68;19.13;;;6.30;97.10;;;;;;4792423;29;20038;-85
2020/12/12 08:39:46;;;;;;;229.48;26.77;;;6.40;97.10;;;;;;4823637;29;20042;-85
2020/12/12 08:42:51;;;;;;;159.57;26.20;;;6.50;97.10;;;;;;4840026;29;20045;-84
2020/12/12 08:45:46;;;;;;;235.05;29.38;;;6.50;97.10;;;;;;4858081;29;20057;-84
2020/12/12 08:48:16;;;;;;;158.02;24.50;;;6.40;97.00;;;;;;4855925;29;20038;-84
2020/12/12 08:50:56;;;;;;;224.50;29.48;;;6.50;97.00;;;;;;4854763;29;20060;-84
2020/12/12 08:53:50;;;;;;;208.90;27.33;;;6.50;97.00;;;;;;4856909;29;20042;-84
2020/12/12 08:56:28;;;;;;;146.05;23.23;;;6.50;97.10;;;;;;4842112;29;20281;-85
2020/12/12 08:59:06;;;;;;;185.05;27.55;;;6.50;97.00;;;;;;4858415;29;20060;-85
2020/12/12 09:01:58;;;;;;;125.05;22.50;;;6.60;97.10;;;;;;4844157;29;20050;-84
2020/12/12 09:04:43;;;;;;;128.95;22.10;;;6.60;97.10;;;;;;4840086;29;20057;-85
2020/12/12 09:07:48;;;;;;;338.85;31.17;;;6.60;97.10;;;;;;4844486;29;20048;-86
2020/12/12 09:10:33;;;;;;;245.02;28.92;;;6.60;97.00;;;;;;4836752;29;20045;-86
2020/12/12 09:13:10;;;;;;;156.10;26.73;;;6.70;97.00;;;;;;4804151;29;20088;-85
2020/12/12 09:16:08;;;;;;;254.10;27.83;;;6.70;97.00;;;;;;4835986;29;20502;-85
2020/12/12 09:18:47;;;;;;;152.80;25.38;;;6.70;97.00;;;;;;4846828;29;20045;-85
2020/12/12 09:21:18;;;;;;;246.15;27.98;;;6.70;97.00;;;;;;4844298;29;20072;-86
2020/12/12 09:23:48;;;;;;;277.20;30.60;;;6.70;97.00;;;;;;4863783;29;20060;-86
2020/12/12 09:26:39;;;;;;;266.25;30.55;;;6.70;97.00;;;;;;4849678;29;20064;-87
2020/12/12 09:29:31;;;;;;;183.55;27.77;;;6.80;97.00;;;;;;4872962;29;20048;-86
2020/12/12 09:32:10;;;;;;;119.55;23.50;;;6.80;97.00;;;;;;4895223;29;20055;-86
2020/12/12 09:34:56;;;;;;;206.38;28.92;;;6.80;97.00;;;;;;4862002;29;20416;-88
2020/12/12 09:37:30;;;;;;;120.82;21.50;;;6.80;97.00;;;;;;4892722;29;20053;-85
2020/12/12 09:40:05;;;;;;;228.30;31.48;;;6.80;97.00;;;;;;4856355;29;20068;-85
2020/12/12 09:42:53;;;;;;;172.10;25.10;;;6.80;97.00;;;;;;4860782;29;20055;-85
2020/12/12 09:45:20;;;;;;;129.63;26.13;;;6.90;97.00;;;;;;4861735;29;20048;-85
2020/12/12 09:48:01;;;;;;;92.07;22.05;;;6.90;97.00;;;;;;4862556;29;20041;-85
2020/12/12 09:51:05;;;;;;;161.02;24.00;;;6.90;97.10;;;;;;4841418;29;20045;-84
2020/12/12 09:53:38;;;;;;;143.23;23.85;;;6.90;97.10;;;;;;4870708;29;20404;-84
2020/12/12 09:56:23;;;;;;;;;;;6.90;97.00;;;;;;4886403;29;20047;-84
2020/12/12 09:59:26;;;;;;;97.68;21.58;;;7.00;97.10;;;;;;4880108;29;20294;-88
2020/12/12 10:02:05;;;;;;;96.70;20.42;;;7.00;97.10;;;;;;4860707;29;20487;-91
2020/12/12 10:16:42;;;;;;;105.35;22.00;;;7.10;97.00;;;;;;4881382;29;20044;-85
2020/12/12 10:42:25;;;;;;;94.72;22.50;;;7.40;97.00;;;;;;4793098;29;20035;-89
2020/12/12 10:48:59;;;;;;;;;;;;;;;;;;;;;
2020/12/12 10:53:02;;;;;;;140.70;25.10;;;7.40;97.00;;;;;;4872454;29;21228;-87
2020/12/12 10:56:16;;;;;;;135.63;23.45;;;7.50;97.00;;;;;;4870363;29;20048;-86
2020/12/12 10:59:27;;;;;;;209.60;29.42;;;7.50;97.00;;;;;;4854204;29;20049;-88
2020/12/12 11:02:00;;;;;;;134.57;27.15;;;7.50;96.90;;;;;;4853203;29;20060;-85
2020/12/12 11:04:35;;;;;;;68.18;21.63;;;7.50;96.90;;;;;;4841883;29;20052;-84
2020/12/12 11:07:40;;;;;;;83.35;24.55;;;7.60;97.00;;;;;;4885716;29;20048;-83
2020/12/12 11:10:12;;;;;;;191.77;28.50;;;7.60;97.00;;;;;;4869137;29;20040;-85
2020/12/12 11:12:42;;;;;;;110.13;24.27;;;7.60;97.00;;;;;;4867133;29;20056;-84
2020/12/12 11:15:09;;;;;;;88.47;23.27;;;7.60;97.00;;;;;;4870111;29;20056;-83
2020/12/12 11:17:36;;;;;;;162.52;27.67;;;7.60;97.00;;;;;;4864941;29;20045;-83
2020/12/12 11:20:03;;;;;;;173.25;31.25;;;7.70;97.30;;;;;;4868854;29;20048;-84
2020/12/12 11:22:33;;;;;;;166.48;29.35;;;7.70;97.00;;;;;;4860812;29;20040;-84
2020/12/12 11:25:00;;;;;;;127.25;30.15;;;7.70;97.00;;;;;;4860029;29;20052;-84
2020/12/12 11:27:28;;;;;;;128.45;31.17;;;7.70;96.90;;;;;;4869737;29;21388;-84
2020/12/12 11:29:55;;;;;;;143.57;30.58;;;7.70;97.00;;;;;;4883096;29;20052;-84
2020/12/12 11:32:27;;;;;;;175.10;29.65;;;7.70;97.00;;;;;;4889809;29;20033;-84
2020/12/12 11:35:09;;;;;;;139.25;27.40;;;7.70;97.00;;;;;;4850204;29;20041;-84
2020/12/12 11:40:24;;;;;;;129.80;28.42;;;7.70;97.00;;;;;;4881141;29;20037;-83
2020/12/12 11:45:48;;;;;;;201.57;34.15;;;7.90;97.00;;;;;;4869470;29;20049;-87
2020/12/12 11:48:29;;;;;;;83.03;25.90;;;7.90;97.00;;;;;;4862496;29;20696;-85
2020/12/12 11:50:58;;;;;;;86.43;26.23;;;7.90;97.00;;;;;;4878118;29;20420;-86
2020/12/12 11:53:30;;;;;;;98.18;27.50;;;8.00;97.10;;;;;;4859035;29;20048;-85
2020/12/12 11:55:58;;;;;;;94.90;27.17;;;8.00;97.00;;;;;;4848234;29;20044;-85
2020/12/12 11:58:27;;;;;;;93.97;27.35;;;8.10;97.00;;;;;;4889472;29;20500;-86
2020/12/12 12:00:54;;;;;;;75.78;26.45;;;8.20;97.00;;;;;;4841253;29;20044;-85
2020/12/12 12:03:20;;;;;;;85.38;24.67;;;8.20;96.90;;;;;;4844472;29;20078;-85
2020/12/12 12:05:50;;;;;;;124.93;30.45;;;8.20;96.90;;;;;;4886892;29;20052;-84
2020/12/12 12:08:32;;;;;;;60.38;22.25;;;8.20;96.90;;;;;;4869030;29;20049;-84
2020/12/12 12:13:40;;;;;;;74.88;26.77;;;8.20;96.90;;;;;;4887495;29;20068;-84
2020/12/12 12:16:07;;;;;;;125.88;33.05;;;8.20;96.90;;;;;;4871318;29;20048;-84
2020/12/12 12:18:34;;;;;;;119.75;30.65;;;8.20;96.90;;;;;;4866795;29;20029;-86
2020/12/12 12:21:02;;;;;;;80.40;24.73;;;8.30;97.20;;;;;;4862350;29;20044;-85
2020/12/12 12:23:44;;;;;;;71.47;22.73;;;8.30;96.90;;;;;;4860160;29;20404;-84
2020/12/12 12:26:53;;;;;;;83.70;26.13;;;8.30;97.00;;;;;;4887810;29;20421;-84
2020/12/12 12:29:49;;;;;;;73.18;23.42;;;8.30;96.90;;;;;;4840939;29;20437;-85
2020/12/12 12:32:15;;;;;;;78.28;24.58;;;8.30;96.90;;;;;;4838028;29;20033;-83
2020/12/12 12:34:42;;;;;;;57.55;22.52;;;8.40;97.00;;;;;;4851798;29;20061;-83
2020/12/12 12:37:09;;;;;;;72.22;21.90;;;8.40;97.00;;;;;;4853124;29;20041;-84
2020/12/12 12:39:36;;;;;;;98.25;25.48;;;8.40;97.00;;;;;;4852180;29;20060;-85
2020/12/12 12:42:06;;;;;;;92.47;27.10;;;8.50;97.00;;;;;;4849908;29;20038;-84
2020/12/12 12:44:39;;;;;;;72.63;22.02;;;8.50;96.90;;;;;;4838811;29;20512;-90
2020/12/12 12:47:09;;;;;;;141.77;29.75;;;8.40;96.90;;;;;;4875319;29;20049;-85
2020/12/12 12:49:45;;;;;;;98.53;27.48;;;8.50;96.90;;;;;;4830294;29;20509;-87
2020/12/12 12:52:13;;;;;;;64.15;26.75;;;8.40;96.90;;;;;;4824168;29;20053;-85
2020/12/12 12:54:40;;;;;;;94.15;27.08;;;8.40;96.90;;;;;;4838460;29;20488;-86
2020/12/12 12:57:10;;;;;;;132.52;30.15;;;8.50;96.90;;;;;;4822442;29;20064;-89
2020/12/12 13:00:07;;;;;;;95.78;23.17;;;8.50;96.90;;;;;;4854210;29;20038;-88
2020/12/12 13:02:34;;;;;;;121.47;23.25;;;8.40;96.90;;;;;;4876197;29;20044;-84
2020/12/12 13:05:02;;;;;;;66.95;21.13;;;8.50;97.00;;;;;;4856234;29;20044;-86
2020/12/12 13:07:32;;;;;;;121.32;23.92;;;8.50;97.00;;;;;;4838243;29;20594;-86
2020/12/12 13:10:07;;;;;;;95.15;23.40;;;8.60;97.00;;;;;;4864243;29;20400;-82
2020/12/12 13:12:40;;;;;;;88.30;22.20;;;8.60;97.00;;;;;;4889249;29;20053;-89
2020/12/12 13:16:04;;;;;;;91.60;22.73;;;8.60;96.90;;;;;;4854600;29;20040;-88
2020/12/12 13:21:56;;;;;;;87.60;22.05;;;8.60;97.00;;;;;;4843285;29;20049;-87
2020/12/12 13:25:24;;;;;;;142.73;25.15;;;8.60;97.00;;;;;;4788373;29;20047;-89
2020/12/12 13:31:47;;;;;;;102.05;22.00;;;8.60;96.90;;;;;;4779809;29;20050;-86
2020/12/12 13:34:14;;;;;;;81.35;20.27;;;8.60;97.00;;;;;;4789985;29;20051;-83
2020/12/12 13:36:41;;;;;;;87.75;21.38;;;8.50;97.00;;;;;;4817454;29;20532;-85
2020/12/12 13:39:34;;;;;;;81.28;19.45;;;8.60;97.00;;;;;;4811944;29;20053;-87
2020/12/12 13:42:17;;;;;;;44.47;17.27;;;8.60;97.00;;;;;;4822840;29;20033;-86
2020/12/12 13:45:19;;;;;;;54.05;17.67;;;8.60;97.10;;;;;;4822286;29;20060;-86
2020/12/12 13:48:19;;;;;;;54.70;17.40;;;8.60;97.10;;;;;;4822601;29;20045;-87
2020/12/12 13:51:21;;;;;;;88.18;20.38;;;8.70;97.10;;;;;;4857210;29;20053;-86
2020/12/12 13:54:07;;;;;;;75.18;19.08;;;8.70;97.10;;;;;;4865651;29;20041;-85
2020/12/12 13:57:26;;;;;;;43.72;15.70;;;8.70;97.10;;;;;;4846648;29;20059;-86
2020/12/12 14:00:29;;;;;;;53.53;16.00;;;8.70;97.10;;;;;;4843790;29;20049;-86
2020/12/12 14:03:28;;;;;;;67.10;16.52;;;8.80;97.10;;;;;;4863468;29;20056;-88
2020/12/12 14:06:24;;;;;;;47.13;14.43;;;8.80;97.10;;;;;;4868700;29;20036;-87
2020/12/12 14:23:56;;;;;;;79.88;18.10;;;8.80;97.10;;;;;;4869093;29;20400;-88
2020/12/12 14:29:20;;;;;;;128.52;19.40;;;8.80;97.10;;;;;;4883535;29;20047;-88
2020/12/12 14:31:55;;;;;;;161.27;23.30;;;8.80;97.20;;;;;;4864098;29;20045;-88
2020/12/12 14:34:46;;;;;;;83.40;17.50;;;8.80;97.10;;;;;;4853465;29;20057;-88
2020/12/12 14:37:31;;;;;;;154.60;20.77;;;8.80;97.20;;;;;;4854803;29;20060;-87
2020/12/12 14:40:18;;;;;;;126.63;20.83;;;8.80;97.20;;;;;;4886177;29;20377;-88
2020/12/12 14:42:59;;;;;;;91.32;19.00;;;8.80;97.20;;;;;;4874195;29;20061;-88
2020/12/12 14:45:29;;;;;;;110.45;22.52;;;8.80;97.20;;;;;;4870666;29;20041;-88
2020/12/12 14:48:08;;;;;;;80.47;20.80;;;8.80;97.20;;;;;;4871643;29;20048;-88
2020/12/12 14:50:43;;;;;;;140.00;22.50;;;8.80;97.20;;;;;;4878937;29;20048;-88
2020/12/12 14:53:18;;;;;;;118.00;24.17;;;8.80;97.20;;;;;;4877407;29;20064;-88
2020/12/12 14:55:45;;;;;;;152.40;23.65;;;8.80;97.20;;;;;;4871894;29;20479;-88
2020/12/12 14:58:40;;;;;;;108.45;23.17;;;8.80;97.20;;;;;;4842467;29;20040;-88
2020/12/12 15:01:15;;;;;;;232.15;27.17;;;8.80;97.20;;;;;;4875895;29;20052;-88
2020/12/12 15:03:45;;;;;;;175.93;25.92;;;8.80;97.20;;;;;;4849164;29;20046;-88
2020/12/12 15:06:48;;;;;;;113.85;25.88;;;8.80;97.20;;;;;;4873566;29;20484;-88
2020/12/12 15:09:24;;;;;;;231.18;23.92;;;8.80;97.20;;;;;;4840559;29;20045;-88
2020/12/12 15:12:02;;;;;;;243.13;26.75;;;8.90;97.30;;;;;;4849720;29;20056;-88
2020/12/12 15:14:42;;;;;;;117.90;22.17;;;8.90;97.30;;;;;;4864755;29;20049;-88
2020/12/12 15:17:28;;;;;;;245.30;27.13;;;8.90;97.30;;;;;;4844877;29;20527;-88
2020/12/12 15:20:03;;;;;;;209.57;26.35;;;8.90;97.30;;;;;;4875687;29;20052;-88
2020/12/12 15:22:34;;;;;;;297.35;29.13;;;8.90;97.30;;;;;;4850245;29;20045;-88
2020/12/12 15:25:09;;;;;;;112.05;22.85;;;8.90;97.20;;;;;;4880466;29;20049;-88
2020/12/12 15:27:46;;;;;;;197.52;25.50;;;8.90;97.20;;;;;;4862989;29;20061;-89
2020/12/12 15:33:39;;;;;;;121.70;23.85;;;8.90;97.20;;;;;;4865311;29;20044;-85
2020/12/12 15:36:28;;;;;;;93.45;21.70;;;9.00;97.30;;;;;;4851109;29;20500;-86
2020/12/12 15:39:41;;;;;;;;;;;;;;;;;;;;;
2020/12/12 15:42:29;;;;;;;95.97;22.45;;;9.00;97.30;;;;;;4879509;29;20527;-87
2020/12/12 15:45:42;;;;;;;;;;;9.00;97.30;;;;;;4855219;29;20045;-86
2020/12/12 15:48:39;;;;;;;88.57;21.63;;;9.00;97.30;;;;;;4874616;29;19911;-87
2020/12/12 15:51:31;;;;;;;;;;;;;;;;;;;;;
2020/12/12 15:54:07;;;;;;;167.75;28.13;;;9.00;97.30;;;;;;4875477;29;20061;-83
2020/12/12 15:56:40;;;;;;;201.23;30.65;;;9.00;97.30;;;;;;4864330;29;20036;-84
2020/12/12 15:59:12;;;;;;;115.70;26.90;;;8.90;97.30;;;;;;4889294;29;20053;-83
2020/12/12 16:01:46;;;;;;;152.45;27.52;;;8.90;97.30;;;;;;4868833;29;20029;-83
2020/12/12 16:04:31;;;;;;;107.47;26.25;;;8.90;97.30;;;;;;4888227;29;20032;-82
2020/12/12 16:07:02;;;;;;;235.05;32.80;;;8.90;97.30;;;;;;4868849;29;20067;-85